createdAt,value
2023-12-09T00:00:39.592Z,53.17
2023-12-09T00:03:08.431Z,48.80
2023-12-09T00:05:35.908Z,47.85
2023-12-09T00:08:02.552Z,48.67
2023-12-09T00:10:29.223Z,47.20
2023-12-09T00:12:56.151Z,48.70
2023-12-09T00:15:22.817Z,48.72
2023-12-09T00:17:50.352Z,46.75
2023-12-09T00:20:16.878Z,46.50
2023-12-09T00:22:43.384Z,50.45
2023-12-09T00:25:10.534Z,46.85
2023-12-09T00:27:37.028Z,48.10
2023-12-09T00:30:03.844Z,49.13
2023-12-09T00:32:30.825Z,48.03
2023-12-09T00:34:57.742Z,47.63
2023-12-09T00:37:24.227Z,48.65
2023-12-09T00:39:51.036Z,49.92
2023-12-09T00:42:17.711Z,48.10
2023-12-09T00:44:44.367Z,49.17
2023-12-09T00:47:10.917Z,46.58
2023-12-09T00:49:37.591Z,48.53
2023-12-09T00:52:04.422Z,47.38
2023-12-09T00:54:31.004Z,47.90
2023-12-09T00:56:57.636Z,47.70
2023-12-09T00:59:24.164Z,45.90
2023-12-09T01:01:50.723Z,45.50
2023-12-09T01:04:17.419Z,46.40
2023-12-09T01:06:44.177Z,46.55
2023-12-09T01:09:10.794Z,45.33
2023-12-09T01:11:37.378Z,44.78
2023-12-09T01:14:03.875Z,43.33
2023-12-09T01:16:31.258Z,45.97
2023-12-09T01:18:58.065Z,44.28
2023-12-09T01:21:24.671Z,45.65
2023-12-09T01:23:51.267Z,44.38
2023-12-09T01:26:17.827Z,45.45
2023-12-09T01:28:45.197Z,44.13
2023-12-09T01:31:11.747Z,44.47
2023-12-09T01:33:39.288Z,44.63
2023-12-09T01:36:06.143Z,44.47
2023-12-09T01:38:32.753Z,45.90
2023-12-09T01:40:59.264Z,44.13
2023-12-09T01:43:26.571Z,43.28
2023-12-09T01:45:55.830Z,44.38
2023-12-09T01:48:23.617Z,41.28
2023-12-09T01:50:50.733Z,43.35
2023-12-09T01:53:17.542Z,43.60
2023-12-09T01:55:44.129Z,43.15
2023-12-09T01:58:11.826Z,43.17
2023-12-09T02:00:40.831Z,42.78
2023-12-09T02:03:07.656Z,45.58
2023-12-09T02:09:21.299Z,43.25
2023-12-09T02:12:14.541Z,45.05
2023-12-09T02:14:56.133Z,43.90
2023-12-09T02:20:15.594Z,43.47
2023-12-09T02:22:42.181Z,43.72
2023-12-09T02:25:09.253Z,44.85
2023-12-09T02:27:58.857Z,44.25
2023-12-09T02:30:42.230Z,45.67
2023-12-09T02:33:11.364Z,44.80
2023-12-09T02:35:41.381Z,44.92
2023-12-09T02:38:10.185Z,45.50
2023-12-09T02:40:37.670Z,44.15
2023-12-09T02:43:05.104Z,45.75
2023-12-09T02:45:31.741Z,45.47
2023-12-09T02:47:58.704Z,46.33
2023-12-09T02:50:25.276Z,47.45
2023-12-09T02:52:51.800Z,45.90
2023-12-09T02:55:18.699Z,46.22
2023-12-09T02:57:45.287Z,45.65
2023-12-09T03:00:12.415Z,46.17
2023-12-09T03:02:39.094Z,46.10
2023-12-09T03:05:05.887Z,47.38
2023-12-09T03:07:32.542Z,47.38
2023-12-09T03:09:59.084Z,47.42
2023-12-09T03:12:25.856Z,47.88
2023-12-09T03:14:54.101Z,48.40
2023-12-09T03:17:20.693Z,50.55
2023-12-09T03:19:47.347Z,48.55
2023-12-09T03:22:13.909Z,49.30
2023-12-09T03:24:43.672Z,50.47
2023-12-09T03:27:10.235Z,49.80
2023-12-09T03:29:37.525Z,48.40
2023-12-09T03:32:04.256Z,51.55
2023-12-09T03:34:31.078Z,50.45
2023-12-09T03:36:57.740Z,51.47
2023-12-09T03:39:24.411Z,51.25
2023-12-09T03:41:51.134Z,53.15
2023-12-09T03:44:17.834Z,53.72
2023-12-09T03:46:44.361Z,54.13
2023-12-09T03:49:11.051Z,53.13
2023-12-09T03:51:37.652Z,53.17
2023-12-09T03:54:05.171Z,53.60
2023-12-09T03:56:32.105Z,54.72
2023-12-09T03:58:58.610Z,55.45
2023-12-09T04:01:25.965Z,58.30
2023-12-09T04:03:53.122Z,57.75
2023-12-09T04:06:19.835Z,58.72
2023-12-09T04:08:46.359Z,58.10
2023-12-09T04:11:12.931Z,58.15
2023-12-09T04:13:41.516Z,58.65
2023-12-09T04:16:08.480Z,58.10
2023-12-09T04:18:35.605Z,57.92
2023-12-09T04:21:02.290Z,57.92
2023-12-09T04:23:28.866Z,59.88
2023-12-09T04:25:55.428Z,57.88
2023-12-09T04:28:22.016Z,60.42
2023-12-09T04:30:48.532Z,60.75
2023-12-09T04:33:15.124Z,61.80
2023-12-09T04:35:41.771Z,60.40
2023-12-09T04:38:08.476Z,61.80
2023-12-09T04:40:35.066Z,59.85
2023-12-09T04:43:01.590Z,63.55
2023-12-09T04:45:28.121Z,65.18
2023-12-09T04:47:54.858Z,63.65
2023-12-09T04:50:22.087Z,63.30
2023-12-09T04:52:48.595Z,60.38
2023-12-09T04:55:15.261Z,62.40
2023-12-09T04:57:44.166Z,61.00
2023-12-09T05:00:12.776Z,63.85
2023-12-09T05:02:39.448Z,63.75
2023-12-09T05:05:06.366Z,62.65
2023-12-09T05:07:33.962Z,63.00
2023-12-09T05:10:00.483Z,61.70
2023-12-09T05:12:28.116Z,64.07
2023-12-09T05:14:54.932Z,63.13
2023-12-09T05:17:21.424Z,65.28
2023-12-09T05:19:48.320Z,62.35
2023-12-09T05:22:16.029Z,66.30
2023-12-09T05:24:43.275Z,63.70
2023-12-09T05:27:09.872Z,63.80
2023-12-09T05:29:36.426Z,65.43
2023-12-09T05:32:04.120Z,64.18
2023-12-09T05:34:30.753Z,64.97
2023-12-09T05:36:57.274Z,66.05
2023-12-09T05:39:23.843Z,65.65
2023-12-09T05:41:50.571Z,66.45
2023-12-09T05:44:17.085Z,66.18
2023-12-09T05:46:43.583Z,63.08
2023-12-09T05:49:10.596Z,63.72
2023-12-09T05:51:38.135Z,64.10
2023-12-09T05:54:04.830Z,62.67
2023-12-09T05:56:31.465Z,66.65
2023-12-09T05:58:58.015Z,63.95
2023-12-09T06:01:24.550Z,65.55
2023-12-09T06:03:51.104Z,61.58
2023-12-09T06:06:17.918Z,61.72
2023-12-09T06:08:44.753Z,62.95
2023-12-09T06:11:11.698Z,64.88
2023-12-09T06:13:39.058Z,60.05
2023-12-09T06:16:05.757Z,64.30
2023-12-09T06:18:33.418Z,62.90
2023-12-09T06:21:00.012Z,63.75
2023-12-09T06:23:27.577Z,64.25
2023-12-09T06:25:54.185Z,63.42
2023-12-09T06:28:20.691Z,61.45
2023-12-09T06:30:47.351Z,60.05
2023-12-09T06:33:14.170Z,61.78
2023-12-09T06:35:40.740Z,62.30
2023-12-09T06:38:07.250Z,60.65
2023-12-09T06:40:33.829Z,60.38
2023-12-09T06:43:00.366Z,59.65
2023-12-09T06:45:27.295Z,62.13
2023-12-09T06:47:55.248Z,59.25
2023-12-09T06:50:22.460Z,60.03
2023-12-09T06:52:49.061Z,58.20
2023-12-09T06:55:15.642Z,59.63
2023-12-09T06:57:42.841Z,58.47
2023-12-09T07:00:09.886Z,60.00
2023-12-09T07:02:45.040Z,59.00
2023-12-09T07:05:20.054Z,57.10
2023-12-09T07:07:46.862Z,56.35
2023-12-09T07:10:13.351Z,56.20
2023-12-09T07:12:39.887Z,56.20
2023-12-09T07:15:07.784Z,55.50
2023-12-09T07:17:34.386Z,56.63
2023-12-09T07:20:01.007Z,56.05
2023-12-09T07:22:27.839Z,53.33
2023-12-09T07:24:54.566Z,57.35
2023-12-09T07:27:21.112Z,54.90
2023-12-09T07:29:47.665Z,53.92
2023-12-09T07:32:15.097Z,60.80
2023-12-09T07:34:41.717Z,55.20
2023-12-09T07:37:11.125Z,53.08
2023-12-09T07:39:43.718Z,53.72
2023-12-09T07:42:11.455Z,53.10
2023-12-09T07:44:38.047Z,50.30
2023-12-09T07:47:05.352Z,50.63
2023-12-09T07:49:32.232Z,49.47
2023-12-09T07:51:58.927Z,50.63
2023-12-09T07:54:25.568Z,50.50
2023-12-09T07:56:52.152Z,49.45
2023-12-09T07:59:18.679Z,48.90
2023-12-09T08:01:45.743Z,48.20
2023-12-09T08:04:13.821Z,46.88
2023-12-09T08:06:40.666Z,46.80
2023-12-09T08:09:08.391Z,46.22
2023-12-09T08:11:35.979Z,45.17
2023-12-09T08:14:02.645Z,46.40
2023-12-09T08:16:29.215Z,44.97
2023-12-09T08:18:55.925Z,45.65
2023-12-09T08:21:22.664Z,44.22
2023-12-09T08:23:49.260Z,42.58
2023-12-09T08:26:19.403Z,41.08
2023-12-09T08:28:46.716Z,42.67
2023-12-09T08:31:13.629Z,41.65
2023-12-09T08:33:41.218Z,41.15
2023-12-09T08:36:08.449Z,41.65
2023-12-09T08:38:35.445Z,39.80
2023-12-09T08:41:02.314Z,39.22
2023-12-09T08:43:28.976Z,37.47
2023-12-09T08:45:55.647Z,35.65
2023-12-09T08:48:22.374Z,37.50
2023-12-09T08:50:49.065Z,37.92
2023-12-09T08:53:15.623Z,38.50
2023-12-09T08:55:42.384Z,37.58
2023-12-09T08:58:09.097Z,34.78
2023-12-09T09:00:35.628Z,35.22
2023-12-09T09:03:04.549Z,35.85
2023-12-09T09:05:31.281Z,35.70
2023-12-09T09:07:58.634Z,37.10
2023-12-09T09:10:25.225Z,35.10
2023-12-09T09:12:51.764Z,35.42
2023-12-09T09:15:18.612Z,34.80
2023-12-09T09:17:45.241Z,35.33
2023-12-09T09:20:12.000Z,34.67
2023-12-09T09:22:39.008Z,34.63
2023-12-09T09:25:06.162Z,34.10
2023-12-09T09:27:33.028Z,34.83
2023-12-09T09:29:59.876Z,33.35
2023-12-09T09:32:26.778Z,33.75
2023-12-09T09:34:53.769Z,34.00
2023-12-09T09:37:21.275Z,35.13
2023-12-09T09:39:48.483Z,34.08
2023-12-09T09:42:21.117Z,32.63
2023-12-09T09:45:11.392Z,34.13
2023-12-09T09:47:38.464Z,31.67
2023-12-09T09:50:09.685Z,33.17
2023-12-09T09:52:37.930Z,31.77
2023-12-09T09:55:07.644Z,33.17
2023-12-09T09:57:35.374Z,32.72
2023-12-09T10:00:02.408Z,31.77
2023-12-09T10:02:29.718Z,32.03
2023-12-09T10:04:56.449Z,32.72
2023-12-09T10:07:23.746Z,31.65
2023-12-09T10:09:51.039Z,29.88
2023-12-09T10:12:17.627Z,30.58
2023-12-09T10:14:44.396Z,29.25
2023-12-09T10:17:12.297Z,31.10
2023-12-09T10:19:39.867Z,30.63
2023-12-09T10:22:06.455Z,30.63
2023-12-09T10:24:33.114Z,29.25
2023-12-09T10:27:01.195Z,30.05
2023-12-09T10:29:27.767Z,29.83
2023-12-09T10:31:54.367Z,27.55
2023-12-09T10:34:21.619Z,28.83
2023-12-09T10:36:48.347Z,28.65
2023-12-09T10:39:14.969Z,29.10
2023-12-09T10:41:46.719Z,27.45
2023-12-09T10:44:13.237Z,30.58
2023-12-09T10:46:39.932Z,27.30
2023-12-09T10:49:06.593Z,27.95
2023-12-09T10:51:33.406Z,27.27
2023-12-09T10:54:00.152Z,28.38
2023-12-09T10:56:27.743Z,27.08
2023-12-09T10:58:56.904Z,27.40
2023-12-09T11:01:24.020Z,26.50
2023-12-09T11:03:50.710Z,26.77
2023-12-09T11:06:21.217Z,26.15
2023-12-09T11:08:48.426Z,25.77
2023-12-09T11:11:17.812Z,25.70
2023-12-09T11:13:47.354Z,26.00
2023-12-09T11:16:22.150Z,23.80
2023-12-09T11:18:54.308Z,25.42
2023-12-09T11:21:23.436Z,22.73
2023-12-09T11:23:54.721Z,21.65
2023-12-09T11:26:32.157Z,21.73
2023-12-09T11:29:11.553Z,20.98
2023-12-09T11:31:40.150Z,22.13
2023-12-09T11:34:08.704Z,21.08
2023-12-09T11:36:37.939Z,19.15
2023-12-09T11:39:10.081Z,18.75
2023-12-09T11:41:41.536Z,17.83
2023-12-09T11:44:10.008Z,19.50
2023-12-09T11:46:37.264Z,19.38
2023-12-09T11:49:05.319Z,18.17
2023-12-09T11:51:34.871Z,18.98
2023-12-09T11:54:03.485Z,17.58
2023-12-09T11:56:31.050Z,17.95
2023-12-09T11:58:58.287Z,16.92
2023-12-09T12:01:26.325Z,18.13
2023-12-09T12:03:53.696Z,18.75
2023-12-09T12:06:23.245Z,18.55
2023-12-09T12:08:51.950Z,16.70
2023-12-09T12:11:23.136Z,15.73
2023-12-09T12:13:51.157Z,15.63
2023-12-09T12:16:17.957Z,16.15
2023-12-09T12:18:46.161Z,15.75
2023-12-09T12:21:12.946Z,15.85
2023-12-09T12:23:42.527Z,16.38
2023-12-09T12:26:14.778Z,14.70
2023-12-09T12:28:41.656Z,15.85
2023-12-09T12:31:11.881Z,15.40
2023-12-09T12:33:38.571Z,16.75
2023-12-09T12:36:06.268Z,15.85
2023-12-09T12:38:33.569Z,14.32
2023-12-09T12:41:00.208Z,15.27
2023-12-09T12:43:32.042Z,15.85
2023-12-09T12:46:00.018Z,14.30
2023-12-09T12:48:27.225Z,15.38
2023-12-09T12:50:54.571Z,14.85
2023-12-09T12:53:24.341Z,14.82
2023-12-09T12:55:52.905Z,15.13
2023-12-09T12:58:19.665Z,14.48
2023-12-09T13:00:51.034Z,15.32
2023-12-09T13:03:18.107Z,14.90
2023-12-09T13:05:44.903Z,15.18
2023-12-09T13:08:11.732Z,15.82
2023-12-09T13:10:38.421Z,15.05
2023-12-09T13:13:06.921Z,13.95
2023-12-09T13:15:34.440Z,13.82
2023-12-09T13:18:02.873Z,14.73
2023-12-09T13:20:30.243Z,12.38
2023-12-09T13:22:57.238Z,14.18
2023-12-09T13:25:23.931Z,13.55
2023-12-09T13:27:50.691Z,12.90
2023-12-09T13:30:17.381Z,12.65
2023-12-09T13:32:45.495Z,11.60
2023-12-09T13:35:12.192Z,11.68
2023-12-09T13:37:39.487Z,11.50
2023-12-09T13:40:08.378Z,10.07
2023-12-09T13:42:35.374Z,11.45
2023-12-09T13:45:02.224Z,10.80
2023-12-09T13:47:28.872Z,10.20
2023-12-09T13:49:56.380Z,11.18
2023-12-09T13:52:23.880Z,10.68
2023-12-09T13:54:52.097Z,10.60
2023-12-09T13:57:18.738Z,10.50
2023-12-09T13:59:45.304Z,10.95
2023-12-09T14:02:12.732Z,11.60
2023-12-09T14:04:39.580Z,10.85
2023-12-09T14:07:06.169Z,10.05
2023-12-09T14:09:32.768Z,9.63
2023-12-09T14:12:01.863Z,9.95
2023-12-09T14:14:30.625Z,10.02
2023-12-09T14:16:57.202Z,10.00
2023-12-09T14:19:25.532Z,10.38
2023-12-09T14:21:52.482Z,9.00
2023-12-09T14:24:19.414Z,9.80
2023-12-09T14:26:46.261Z,8.98
2023-12-09T14:29:12.865Z,9.73
2023-12-09T14:31:39.881Z,9.18
2023-12-09T14:34:07.298Z,8.57
2023-12-09T14:36:34.899Z,8.52
2023-12-09T14:39:01.916Z,9.52
2023-12-09T14:41:28.528Z,9.10
2023-12-09T14:43:59.786Z,9.75
2023-12-09T14:46:32.475Z,8.23
2023-12-09T14:48:59.205Z,8.35
2023-12-09T14:53:55.272Z,8.48
2023-12-09T14:56:22.039Z,9.40
2023-12-09T14:58:48.813Z,9.27
2023-12-09T15:01:15.467Z,8.93
2023-12-09T15:03:42.758Z,9.40
2023-12-09T15:06:09.656Z,9.38
2023-12-09T15:08:36.422Z,10.50
2023-12-09T15:11:03.244Z,9.15
2023-12-09T15:13:30.029Z,9.88
2023-12-09T15:15:56.709Z,10.18
2023-12-09T15:18:23.386Z,11.05
2023-12-09T15:20:52.216Z,11.15
2023-12-09T15:23:18.884Z,11.77
2023-12-09T15:25:46.009Z,11.75
2023-12-09T15:28:13.044Z,12.07
2023-12-09T15:30:40.615Z,12.23
2023-12-09T15:33:07.317Z,13.25
2023-12-09T15:35:35.592Z,13.02
2023-12-09T15:38:03.356Z,14.85
2023-12-09T15:40:29.883Z,13.32
2023-12-09T15:42:56.495Z,13.68
2023-12-09T15:45:23.127Z,15.45
2023-12-09T15:47:49.811Z,14.27
2023-12-09T15:50:16.431Z,13.68
2023-12-09T15:52:43.615Z,13.85
2023-12-09T15:55:10.468Z,13.73
2023-12-09T15:57:37.986Z,14.60
2023-12-09T16:00:06.332Z,15.57
2023-12-09T16:02:33.760Z,14.90
2023-12-09T16:05:00.425Z,15.23
2023-12-09T16:07:27.190Z,14.68
2023-12-09T16:09:58.027Z,14.90
2023-12-09T16:12:26.096Z,14.68
2023-12-09T16:14:55.163Z,16.75
2023-12-09T16:17:22.244Z,22.60
2023-12-09T16:19:49.059Z,16.27
2023-12-09T16:22:18.781Z,16.83
2023-12-09T16:24:47.347Z,15.48
2023-12-09T16:27:15.499Z,16.55
2023-12-09T16:29:42.073Z,17.48
2023-12-09T16:32:11.477Z,18.48
2023-12-09T16:34:39.073Z,17.45
2023-12-09T16:37:05.746Z,18.40
2023-12-09T16:39:32.492Z,18.80
2023-12-09T16:41:59.325Z,18.13
2023-12-09T16:44:26.006Z,18.15
2023-12-09T16:46:52.999Z,17.83
2023-12-09T16:49:19.751Z,19.25
2023-12-09T16:51:46.549Z,18.77
2023-12-09T16:54:13.303Z,19.23
2023-12-09T16:56:40.030Z,19.85
2023-12-09T16:59:12.072Z,20.80
2023-12-09T17:01:39.363Z,19.83
2023-12-09T17:04:06.735Z,18.80
2023-12-09T17:06:34.131Z,20.13
2023-12-09T17:09:01.087Z,18.30
2023-12-09T17:11:28.098Z,18.85
2023-12-09T17:13:54.901Z,18.35
2023-12-09T17:16:21.585Z,18.33
2023-12-09T17:18:48.533Z,17.55
2023-12-09T17:21:15.222Z,19.67
2023-12-09T17:23:42.167Z,19.98
2023-12-09T17:26:08.823Z,19.38
2023-12-09T17:28:35.472Z,18.75
2023-12-09T17:31:02.346Z,18.35
2023-12-09T17:33:29.080Z,19.95
2023-12-09T17:35:56.105Z,20.50
2023-12-09T17:38:22.749Z,19.23
2023-12-09T17:40:49.344Z,20.85
2023-12-09T17:43:16.069Z,20.38
2023-12-09T17:45:42.708Z,20.63
2023-12-09T17:48:09.417Z,22.08
2023-12-09T17:50:36.117Z,21.85
2023-12-09T17:53:02.676Z,22.25
2023-12-09T17:55:29.675Z,21.23
2023-12-09T17:57:58.245Z,22.40
2023-12-09T18:00:24.972Z,21.42
2023-12-09T18:02:51.606Z,22.80
2023-12-09T18:05:19.035Z,22.40
2023-12-09T18:07:45.601Z,23.23
2023-12-09T18:10:13.427Z,24.70
2023-12-09T18:12:41.063Z,23.80
2023-12-09T18:15:08.259Z,22.30
2023-12-09T18:17:35.152Z,23.90
2023-12-09T18:20:02.638Z,23.13
2023-12-09T18:22:29.358Z,23.42
2023-12-09T18:24:56.147Z,22.92
2023-12-09T18:27:23.004Z,22.05
2023-12-09T18:29:49.791Z,23.85
2023-12-09T18:32:17.782Z,23.90
2023-12-09T18:34:44.639Z,22.35
2023-12-09T18:37:12.641Z,22.27
2023-12-09T18:39:39.724Z,24.42
2023-12-09T18:42:06.781Z,23.23
2023-12-09T18:44:33.440Z,22.58
2023-12-09T18:47:00.068Z,24.15
2023-12-09T18:49:26.690Z,23.40
2023-12-09T18:51:53.718Z,23.73
2023-12-09T18:54:20.307Z,23.38
2023-12-09T18:56:47.114Z,23.60
2023-12-09T18:59:16.124Z,23.48
2023-12-09T19:01:44.023Z,26.30
2023-12-09T19:04:11.155Z,24.38
2023-12-09T19:06:45.785Z,25.15
2023-12-09T19:09:20.533Z,24.40
2023-12-09T19:11:47.266Z,22.88
2023-12-09T19:14:13.860Z,22.63
2023-12-09T19:16:41.559Z,22.60
2023-12-09T19:19:08.375Z,24.40
2023-12-09T19:21:39.213Z,24.63
2023-12-09T19:24:06.396Z,18.05
2023-12-09T19:26:34.383Z,22.60
2023-12-09T19:29:02.699Z,23.33
2023-12-09T19:31:29.666Z,25.35
2023-12-09T19:33:56.470Z,23.80
2023-12-09T19:36:23.211Z,23.52
2023-12-09T19:38:50.603Z,24.92
2023-12-09T19:41:17.164Z,24.40
2023-12-09T19:43:44.103Z,24.88
2023-12-09T19:46:10.708Z,24.23
2023-12-09T19:48:39.464Z,23.27
2023-12-09T19:51:06.438Z,23.67
2023-12-09T19:53:33.095Z,24.52
2023-12-09T19:55:59.900Z,26.77
2023-12-09T19:58:26.540Z,24.55
2023-12-09T20:00:53.291Z,23.80
2023-12-09T20:03:20.382Z,24.52
2023-12-09T20:05:47.035Z,24.20
2023-12-09T20:08:14.434Z,23.10
2023-12-09T20:10:42.448Z,22.65
2023-12-09T20:13:09.166Z,23.85
2023-12-09T20:15:35.826Z,23.10
2023-12-09T20:18:02.549Z,22.25
2023-12-09T20:20:30.372Z,23.52
2023-12-09T20:22:59.924Z,21.60
2023-12-09T20:25:26.535Z,22.30
2023-12-09T20:27:53.407Z,22.30
2023-12-09T20:30:20.277Z,22.67
2023-12-09T20:32:47.482Z,23.75
2023-12-09T20:35:14.959Z,22.45
2023-12-09T20:37:41.898Z,22.33
2023-12-09T20:40:08.966Z,22.83
2023-12-09T20:42:35.928Z,23.95
2023-12-09T20:45:04.930Z,22.70
2023-12-09T20:47:31.503Z,21.55
2023-12-09T20:49:58.147Z,22.33
2023-12-09T20:52:25.002Z,23.17
2023-12-09T20:54:51.741Z,22.05
2023-12-09T20:57:18.435Z,24.45
2023-12-09T20:59:47.480Z,22.92
2023-12-09T21:02:14.058Z,22.83
2023-12-09T21:04:45.226Z,22.50
2023-12-09T21:07:12.089Z,23.73
2023-12-09T21:09:41.361Z,23.92
2023-12-09T21:12:09.167Z,24.70
2023-12-09T21:14:35.827Z,22.23
2023-12-09T21:17:02.581Z,23.42
2023-12-09T21:19:32.208Z,24.88
2023-12-09T21:21:58.912Z,23.05
2023-12-09T21:24:25.506Z,24.67
2023-12-09T21:26:53.264Z,24.70
2023-12-09T21:29:20.885Z,24.13
2023-12-09T21:31:47.514Z,23.88
2023-12-09T21:34:14.674Z,23.38
2023-12-09T21:36:41.774Z,22.92
2023-12-09T21:39:09.983Z,22.63
2023-12-09T21:41:36.728Z,24.20
2023-12-09T21:44:03.474Z,21.92
2023-12-09T21:46:30.708Z,22.92
2023-12-09T21:48:57.949Z,21.52
2023-12-09T21:51:24.884Z,22.45
2023-12-09T21:53:51.670Z,21.65
2023-12-09T21:56:22.804Z,22.05
2023-12-09T21:58:50.343Z,21.20
2023-12-09T22:01:20.469Z,19.80
2023-12-09T22:03:47.916Z,19.88
2023-12-09T22:06:14.904Z,20.17
2023-12-09T22:08:42.678Z,19.20
2023-12-09T22:11:10.319Z,19.40
2023-12-09T22:13:36.979Z,19.33
2023-12-09T22:16:04.876Z,18.45
2023-12-09T22:18:31.719Z,18.13
2023-12-09T22:21:01.715Z,20.23
2023-12-09T22:23:28.559Z,17.52
2023-12-09T22:25:55.472Z,19.15
2023-12-09T22:28:22.590Z,17.52
2023-12-09T22:30:49.285Z,16.33
2023-12-09T22:33:16.006Z,17.90
2023-12-09T22:35:43.435Z,17.67
2023-12-09T22:38:10.018Z,16.40
2023-12-09T22:40:37.481Z,16.27
2023-12-09T22:43:04.290Z,16.35
2023-12-09T22:45:30.850Z,17.45
2023-12-09T22:47:57.662Z,16.77
2023-12-09T22:50:24.457Z,15.90
2023-12-09T22:52:51.084Z,16.55
2023-12-09T22:55:17.711Z,17.23
2023-12-09T22:57:45.628Z,15.73
2023-12-09T23:00:18.969Z,16.48
2023-12-09T23:02:45.511Z,16.98
2023-12-09T23:05:12.135Z,15.70
2023-12-09T23:07:38.661Z,15.55
2023-12-09T23:10:05.901Z,15.50
2023-12-09T23:12:32.809Z,15.35
2023-12-09T23:14:59.400Z,15.55
2023-12-09T23:17:26.001Z,14.57
2023-12-09T23:19:52.668Z,15.25
2023-12-09T23:22:19.219Z,14.98
2023-12-09T23:24:45.821Z,14.93
2023-12-09T23:27:12.409Z,13.93
2023-12-09T23:29:39.023Z,14.57
2023-12-09T23:32:06.668Z,16.13
2023-12-09T23:34:33.298Z,15.18
2023-12-09T23:36:59.899Z,14.10
2023-12-09T23:39:26.545Z,14.65
2023-12-09T23:41:53.780Z,15.60
2023-12-09T23:44:22.430Z,15.90
2023-12-09T23:46:49.008Z,16.67
2023-12-09T23:49:15.528Z,15.35
2023-12-09T23:51:42.121Z,16.65
2023-12-09T23:54:08.677Z,16.80
2023-12-09T23:56:35.247Z,15.55
2023-12-09T23:59:01.778Z,17.23
